createdAt,value
2023-09-17T00:01:59.428Z,2.97
2023-09-17T00:04:27.142Z,3.30
2023-09-17T00:06:54.883Z,3.20
2023-09-17T00:09:22.607Z,3.22
2023-09-17T00:11:51.620Z,2.83
2023-09-17T00:14:19.352Z,2.80
2023-09-17T00:16:47.598Z,2.90
2023-09-17T00:19:16.461Z,3.10
2023-09-17T00:21:44.383Z,3.05
2023-09-17T00:24:12.177Z,3.58
2023-09-17T00:26:40.330Z,3.47
2023-09-17T00:29:09.226Z,3.90
2023-09-17T00:31:38.945Z,3.53
2023-09-17T00:34:07.960Z,3.95
2023-09-17T00:36:35.592Z,3.58
2023-09-17T00:39:04.822Z,3.97
2023-09-17T00:41:32.523Z,4.00
2023-09-17T00:44:00.254Z,4.05
2023-09-17T00:46:29.519Z,4.22
2023-09-17T00:48:57.362Z,3.80
2023-09-17T00:51:25.099Z,3.97
2023-09-17T00:53:53.141Z,3.03
2023-09-17T00:56:21.239Z,3.20
2023-09-17T00:58:49.016Z,3.08
2023-09-17T01:01:15.895Z,2.97
2023-09-17T01:03:45.340Z,3.38
2023-09-17T01:06:13.714Z,3.72
2023-09-17T01:08:41.872Z,2.92
2023-09-17T01:11:10.655Z,3.25
2023-09-17T01:13:41.692Z,3.90
2023-09-17T01:16:10.132Z,3.70
2023-09-17T01:18:38.103Z,3.50
2023-09-17T01:21:09.331Z,2.75
2023-09-17T01:23:40.642Z,3.30
2023-09-17T01:26:09.693Z,3.30
2023-09-17T01:28:38.794Z,3.60
2023-09-17T01:31:07.178Z,3.55
2023-09-17T01:33:35.618Z,3.85
2023-09-17T01:36:08.994Z,3.42
2023-09-17T01:38:40.745Z,3.00
2023-09-17T01:41:09.975Z,2.97
2023-09-17T01:43:41.642Z,3.70
2023-09-17T01:46:09.780Z,3.42
2023-09-17T01:48:38.346Z,3.90
2023-09-17T01:51:06.577Z,3.90
2023-09-17T01:53:34.992Z,3.78
2023-09-17T01:56:03.105Z,3.22
2023-09-17T01:58:31.435Z,3.25
2023-09-17T02:01:00.402Z,3.85
2023-09-17T02:03:30.009Z,3.67
2023-09-17T02:05:58.234Z,3.65
2023-09-17T02:08:26.007Z,3.53
2023-09-17T02:10:53.761Z,3.67
2023-09-17T02:13:21.652Z,3.25
2023-09-17T02:15:49.443Z,3.00
2023-09-17T02:18:18.399Z,3.58
2023-09-17T02:20:47.707Z,2.95
2023-09-17T02:23:15.374Z,3.05
2023-09-17T02:25:43.057Z,2.70
2023-09-17T02:28:10.811Z,3.33
2023-09-17T02:30:38.384Z,3.00
2023-09-17T02:33:07.597Z,2.85
2023-09-17T02:35:36.552Z,3.08
2023-09-17T02:38:05.521Z,2.92
2023-09-17T02:40:33.228Z,3.30
2023-09-17T02:43:02.140Z,3.60
2023-09-17T02:45:29.862Z,3.33
2023-09-17T02:47:57.741Z,3.10
2023-09-17T02:50:25.443Z,3.40
2023-09-17T02:52:54.542Z,3.92
2023-09-17T02:55:22.171Z,3.35
2023-09-17T02:57:51.602Z,3.65
2023-09-17T03:00:22.658Z,3.05
2023-09-17T03:02:51.526Z,2.58
2023-09-17T03:05:20.238Z,3.03
2023-09-17T03:07:48.834Z,2.80
2023-09-17T03:10:19.970Z,3.20
2023-09-17T03:12:48.253Z,3.05
2023-09-17T03:15:16.643Z,3.50
2023-09-17T03:17:44.594Z,3.40
2023-09-17T03:20:18.334Z,3.22
2023-09-17T03:22:46.832Z,3.22
2023-09-17T03:25:14.696Z,2.70
2023-09-17T03:27:46.873Z,2.85
2023-09-17T03:30:15.182Z,2.80
2023-09-17T03:35:14.124Z,3.33
2023-09-17T03:37:41.777Z,3.10
2023-09-17T03:40:11.766Z,3.22
2023-09-17T03:42:41.883Z,2.80
2023-09-17T03:45:12.533Z,2.95
2023-09-17T03:47:40.730Z,3.15
2023-09-17T03:50:09.465Z,2.92
2023-09-17T03:52:37.481Z,3.00
2023-09-17T03:55:06.971Z,3.45
2023-09-17T03:57:35.546Z,3.10
2023-09-17T04:00:07.547Z,3.63
2023-09-17T04:02:46.312Z,3.70
2023-09-17T04:05:15.615Z,3.63
2023-09-17T04:07:44.231Z,3.10
2023-09-17T04:10:12.449Z,3.03
2023-09-17T04:12:41.335Z,2.95
2023-09-17T04:15:14.137Z,3.30
2023-09-17T04:17:41.910Z,3.10
2023-09-17T04:20:15.294Z,3.10
2023-09-17T04:22:44.257Z,3.30
2023-09-17T04:25:12.452Z,3.42
2023-09-17T04:27:42.865Z,4.05
2023-09-17T04:30:13.674Z,3.35
2023-09-17T04:32:42.477Z,3.60
2023-09-17T04:35:12.552Z,3.10
2023-09-17T04:37:41.220Z,3.20
2023-09-17T04:40:12.346Z,3.17
2023-09-17T04:42:42.198Z,3.38
2023-09-17T04:45:11.815Z,3.38
2023-09-17T04:47:41.025Z,3.35
2023-09-17T04:50:10.394Z,3.38
2023-09-17T04:52:40.025Z,3.45
2023-09-17T04:55:07.925Z,3.85
2023-09-17T04:57:37.119Z,3.17
2023-09-17T05:00:11.828Z,3.30
2023-09-17T05:02:40.550Z,3.03
2023-09-17T05:05:11.089Z,3.20
2023-09-17T05:07:42.385Z,3.47
2023-09-17T05:10:10.589Z,2.90
2023-09-17T05:12:38.818Z,3.45
2023-09-17T05:15:06.606Z,3.20
2023-09-17T05:17:36.444Z,2.95
2023-09-17T05:20:07.222Z,3.10
2023-09-17T05:22:35.482Z,2.72
2023-09-17T05:25:07.794Z,2.78
2023-09-17T05:27:36.209Z,3.08
2023-09-17T05:30:04.123Z,2.90
2023-09-17T05:32:32.695Z,3.10
2023-09-17T05:35:01.019Z,2.80
2023-09-17T05:37:29.146Z,2.88
2023-09-17T05:39:57.936Z,2.92
2023-09-17T05:42:27.478Z,2.50
2023-09-17T05:44:55.334Z,2.28
2023-09-17T05:47:25.044Z,2.28
2023-09-17T05:49:52.882Z,2.22
2023-09-17T05:52:22.313Z,2.92
2023-09-17T05:54:50.057Z,2.67
2023-09-17T05:57:18.803Z,1.77
2023-09-17T05:59:47.757Z,2.15
2023-09-17T06:02:16.132Z,2.80
2023-09-17T06:04:48.640Z,2.20
2023-09-17T06:07:16.636Z,2.05
2023-09-17T06:09:44.385Z,1.90
2023-09-17T06:12:13.147Z,2.45
2023-09-17T06:14:40.992Z,1.95
2023-09-17T06:17:10.287Z,2.00
2023-09-17T06:19:38.929Z,2.13
2023-09-17T06:22:06.606Z,1.85
2023-09-17T06:24:34.502Z,1.65
2023-09-17T06:27:02.118Z,2.10
2023-09-17T06:29:29.704Z,2.08
2023-09-17T06:31:57.968Z,1.75
2023-09-17T06:34:27.151Z,2.08
2023-09-17T06:36:54.813Z,2.05
2023-09-17T06:39:22.704Z,2.00
2023-09-17T06:41:50.553Z,2.03
2023-09-17T06:44:19.549Z,2.10
2023-09-17T06:46:47.435Z,2.05
2023-09-17T06:49:15.168Z,1.92
2023-09-17T06:51:44.054Z,1.90
2023-09-17T06:54:11.742Z,1.83
2023-09-17T06:56:39.368Z,2.05
2023-09-17T06:59:07.006Z,1.80
2023-09-17T07:01:35.360Z,2.20
2023-09-17T07:04:03.145Z,1.80
2023-09-17T07:06:30.809Z,1.70
2023-09-17T07:08:59.723Z,1.80
2023-09-17T07:11:27.293Z,1.52
2023-09-17T07:13:56.756Z,1.65
2023-09-17T07:16:26.622Z,1.98
2023-09-17T07:18:55.427Z,1.33
2023-09-17T07:21:23.073Z,1.73
2023-09-17T07:23:52.060Z,1.67
2023-09-17T07:26:22.012Z,1.70
2023-09-17T07:28:49.739Z,1.73
2023-09-17T07:31:17.546Z,1.40
2023-09-17T07:33:45.576Z,1.45
2023-09-17T07:36:14.606Z,1.67
2023-09-17T07:38:42.553Z,1.73
2023-09-17T07:41:10.237Z,1.45
2023-09-17T07:43:39.414Z,1.50
2023-09-17T07:46:07.271Z,1.33
2023-09-17T07:48:35.561Z,1.40
2023-09-17T07:51:03.505Z,1.10
2023-09-17T07:53:31.189Z,1.13
2023-09-17T07:55:58.940Z,1.05
2023-09-17T07:58:26.723Z,0.98
2023-09-17T08:00:56.229Z,1.10
2023-09-17T08:03:24.306Z,1.52
2023-09-17T08:05:52.061Z,1.10
2023-09-17T08:08:19.853Z,0.95
2023-09-17T08:10:47.634Z,1.10
2023-09-17T08:13:15.768Z,1.10
2023-09-17T08:15:44.376Z,1.17
2023-09-17T08:18:13.283Z,1.00
2023-09-17T08:20:41.000Z,1.23
2023-09-17T08:23:09.433Z,1.20
2023-09-17T08:25:57.763Z,1.00
2023-09-17T08:28:46.782Z,1.30
2023-09-17T08:31:35.196Z,1.15
2023-09-17T08:34:24.316Z,0.90
2023-09-17T08:36:54.505Z,0.80
2023-09-17T08:39:22.328Z,0.80
2023-09-17T08:41:50.048Z,0.85
2023-09-17T08:44:18.845Z,0.80
2023-09-17T08:46:46.779Z,0.77
2023-09-17T08:49:14.494Z,0.98
2023-09-17T08:54:39.510Z,0.70
2023-09-17T08:57:08.221Z,0.88
2023-09-17T08:59:39.334Z,0.63
2023-09-17T09:02:12.693Z,0.95
2023-09-17T09:04:40.954Z,1.00
2023-09-17T09:07:10.540Z,0.85
2023-09-17T09:09:41.142Z,0.60
2023-09-17T09:12:08.848Z,0.70
2023-09-17T09:14:36.545Z,0.77
2023-09-17T09:17:04.561Z,0.57
2023-09-17T09:19:32.229Z,0.80
2023-09-17T09:21:59.897Z,0.80
2023-09-17T09:24:41.439Z,0.60
2023-09-17T09:27:09.362Z,0.90
2023-09-17T09:29:36.970Z,1.00
2023-09-17T09:32:04.906Z,0.82
2023-09-17T09:34:32.748Z,0.88
2023-09-17T09:37:00.417Z,0.80
2023-09-17T09:39:28.480Z,0.80
2023-09-17T09:41:57.574Z,0.90
2023-09-17T09:44:26.093Z,0.90
2023-09-17T09:46:57.548Z,0.75
2023-09-17T09:49:25.387Z,1.00
2023-09-17T09:51:53.456Z,1.10
2023-09-17T09:54:21.214Z,0.80
2023-09-17T09:56:49.406Z,0.80
2023-09-17T09:59:18.673Z,0.90
2023-09-17T10:01:47.067Z,1.00
2023-09-17T10:04:14.887Z,1.00
2023-09-17T10:06:42.753Z,1.10
2023-09-17T10:09:11.702Z,1.38
2023-09-17T10:11:39.778Z,1.45
2023-09-17T10:14:07.993Z,1.40
2023-09-17T10:16:37.458Z,1.70
2023-09-17T10:19:06.897Z,1.98
2023-09-17T10:21:38.666Z,1.73
2023-09-17T10:24:06.535Z,1.73
2023-09-17T10:26:38.380Z,1.70
2023-09-17T10:29:06.790Z,1.70
2023-09-17T10:31:34.990Z,1.88
2023-09-17T10:34:04.680Z,2.10
2023-09-17T10:36:32.620Z,1.45
2023-09-17T10:39:00.865Z,1.80
2023-09-17T10:41:29.509Z,1.63
2023-09-17T10:43:58.170Z,1.70
2023-09-17T10:46:25.892Z,1.75
2023-09-17T10:48:55.416Z,1.60
2023-09-17T10:51:24.455Z,1.70
2023-09-17T10:53:52.243Z,1.52
2023-09-17T10:56:20.536Z,1.50
2023-09-17T10:58:50.826Z,1.88
2023-09-17T11:01:20.256Z,1.48
2023-09-17T11:03:50.169Z,1.60
2023-09-17T11:09:12.229Z,1.65
2023-09-17T11:11:41.904Z,2.00
2023-09-17T11:14:10.427Z,1.83
2023-09-17T11:16:38.356Z,1.45
2023-09-17T11:19:07.294Z,1.77
2023-09-17T11:21:35.659Z,1.58
2023-09-17T11:24:06.655Z,1.65
2023-09-17T11:26:38.521Z,1.40
2023-09-17T11:29:07.660Z,1.52
2023-09-17T11:31:37.084Z,1.23
2023-09-17T11:34:07.520Z,1.52
2023-09-17T11:36:36.042Z,1.30
2023-09-17T11:39:05.476Z,1.50
2023-09-17T11:41:37.687Z,1.40
2023-09-17T11:44:07.102Z,1.17
2023-09-17T11:46:35.532Z,1.48
2023-09-17T11:49:03.961Z,1.50
2023-09-17T11:51:32.978Z,1.63
2023-09-17T11:54:01.643Z,1.35
2023-09-17T11:56:30.423Z,1.50
2023-09-17T11:58:58.732Z,1.58
2023-09-17T12:01:29.552Z,1.58
2023-09-17T12:03:58.866Z,1.90
2023-09-17T12:06:27.243Z,1.77
2023-09-17T12:08:57.421Z,2.15
2023-09-17T12:14:12.342Z,1.88
2023-09-17T12:16:41.628Z,1.77
2023-09-17T12:19:17.849Z,2.05
2023-09-17T12:21:48.264Z,2.05
2023-09-17T12:24:26.732Z,1.80
2023-09-17T12:27:14.818Z,1.90
2023-09-17T12:29:44.746Z,1.70
2023-09-17T12:32:16.019Z,1.77
2023-09-17T12:34:43.685Z,1.83
2023-09-17T12:37:12.391Z,2.00
2023-09-17T12:39:40.936Z,1.70
2023-09-17T12:42:08.939Z,1.60
2023-09-17T12:44:36.612Z,1.70
2023-09-17T12:47:05.405Z,1.88
2023-09-17T12:49:34.621Z,1.60
2023-09-17T12:52:02.883Z,1.60
2023-09-17T12:54:30.664Z,1.60
2023-09-17T12:56:59.147Z,1.60
2023-09-17T12:59:28.184Z,1.42
2023-09-17T13:01:56.156Z,1.40
2023-09-17T13:04:34.698Z,1.60
2023-09-17T13:07:02.657Z,1.40
2023-09-17T13:09:32.629Z,1.50
2023-09-17T13:12:01.529Z,1.52
2023-09-17T13:14:30.623Z,1.40
2023-09-17T13:16:58.315Z,1.30
2023-09-17T13:19:26.730Z,1.30
2023-09-17T13:21:56.334Z,1.40
2023-09-17T13:24:24.052Z,1.38
2023-09-17T13:26:51.688Z,1.17
2023-09-17T13:29:19.356Z,1.50
2023-09-17T13:31:49.539Z,1.42
2023-09-17T13:34:18.099Z,1.55
2023-09-17T13:37:06.339Z,1.20
2023-09-17T13:39:34.272Z,1.30
2023-09-17T13:42:01.926Z,1.50
2023-09-17T13:44:29.569Z,1.63
2023-09-17T13:46:57.551Z,1.38
2023-09-17T13:49:25.953Z,1.42
2023-09-17T13:51:54.832Z,1.60
2023-09-17T13:54:23.776Z,1.25
2023-09-17T13:56:51.413Z,1.70
2023-09-17T13:59:19.090Z,1.30
2023-09-17T14:01:47.038Z,1.10
2023-09-17T14:04:14.867Z,0.98
2023-09-17T14:06:42.527Z,1.05
2023-09-17T14:09:10.190Z,0.88
2023-09-17T14:11:39.917Z,0.95
2023-09-17T14:14:07.709Z,1.00
2023-09-17T14:16:35.349Z,0.90
2023-09-17T14:19:03.017Z,1.20
2023-09-17T14:21:31.374Z,1.10
2023-09-17T14:23:58.956Z,0.90
2023-09-17T14:26:27.297Z,0.98
2023-09-17T14:28:56.235Z,1.00
2023-09-17T14:31:23.937Z,0.70
2023-09-17T14:33:51.617Z,0.80
2023-09-17T14:36:19.398Z,0.85
2023-09-17T14:38:47.071Z,1.00
2023-09-17T14:41:14.857Z,1.15
2023-09-17T14:43:42.572Z,0.90
2023-09-17T14:46:13.520Z,0.90
2023-09-17T14:48:41.381Z,0.98
2023-09-17T14:51:09.006Z,0.80
2023-09-17T14:53:35.755Z,1.38
2023-09-17T14:56:03.405Z,0.90
2023-09-17T14:58:31.084Z,0.70
2023-09-17T15:01:01.567Z,0.82
2023-09-17T15:03:33.662Z,0.77
2023-09-17T15:06:01.976Z,0.80
2023-09-17T15:08:29.604Z,0.70
2023-09-17T15:10:57.430Z,0.90
2023-09-17T15:13:25.108Z,1.23
2023-09-17T15:15:52.778Z,1.15
2023-09-17T15:18:20.485Z,0.75
2023-09-17T15:20:49.480Z,0.93
2023-09-17T15:23:17.587Z,0.90
2023-09-17T15:25:45.403Z,0.95
2023-09-17T15:28:13.156Z,0.80
2023-09-17T15:30:40.805Z,0.88
2023-09-17T15:33:09.111Z,1.10
2023-09-17T15:35:37.733Z,0.95
2023-09-17T15:38:07.418Z,0.90
2023-09-17T15:40:35.295Z,0.90
2023-09-17T15:43:03.042Z,0.77
2023-09-17T15:45:30.703Z,1.02
2023-09-17T15:47:58.548Z,0.82
2023-09-17T15:50:26.218Z,1.00
2023-09-17T15:52:53.915Z,1.20
2023-09-17T15:55:22.961Z,1.00
2023-09-17T15:57:50.692Z,0.90
2023-09-17T16:00:18.531Z,0.90
2023-09-17T16:02:46.224Z,1.00
2023-09-17T16:05:14.989Z,0.70
2023-09-17T16:07:45.514Z,1.08
2023-09-17T16:10:15.010Z,1.48
2023-09-17T16:12:44.973Z,1.05
2023-09-17T16:15:12.705Z,1.30
2023-09-17T16:17:40.409Z,1.13
2023-09-17T16:20:09.545Z,1.30
2023-09-17T16:22:37.214Z,1.13
2023-09-17T16:25:05.977Z,1.17
2023-09-17T16:27:33.644Z,1.23
2023-09-17T16:30:02.538Z,1.10
2023-09-17T16:32:30.386Z,1.20
2023-09-17T16:34:58.188Z,1.50
2023-09-17T16:37:26.543Z,1.15
2023-09-17T16:39:54.934Z,1.30
2023-09-17T16:42:22.624Z,1.33
2023-09-17T16:44:51.018Z,1.02
2023-09-17T16:47:20.324Z,1.35
2023-09-17T16:49:48.203Z,1.30
2023-09-17T16:52:15.843Z,1.20
2023-09-17T16:54:43.687Z,1.23
2023-09-17T16:57:11.365Z,1.13
2023-09-17T16:59:38.977Z,0.90
2023-09-17T17:02:07.261Z,1.10
2023-09-17T17:04:36.226Z,1.05
2023-09-17T17:07:03.877Z,1.27
2023-09-17T17:09:32.098Z,1.30
2023-09-17T17:11:59.801Z,1.20
2023-09-17T17:14:27.482Z,0.93
2023-09-17T17:16:56.477Z,0.90
2023-09-17T17:19:24.053Z,1.30
2023-09-17T17:21:52.986Z,1.35
2023-09-17T17:24:20.741Z,1.25
2023-09-17T17:26:48.408Z,0.90
2023-09-17T17:29:16.097Z,1.17
2023-09-17T17:31:43.860Z,1.20
2023-09-17T17:34:12.175Z,1.30
2023-09-17T17:36:39.780Z,1.10
2023-09-17T17:39:08.684Z,1.30
2023-09-17T17:41:36.285Z,1.08
2023-09-17T17:44:04.792Z,1.20
2023-09-17T17:46:32.426Z,1.30
2023-09-17T17:49:00.073Z,1.17
2023-09-17T17:51:27.892Z,1.15
2023-09-17T17:53:56.055Z,0.90
2023-09-17T17:56:25.031Z,1.08
2023-09-17T17:58:52.936Z,1.13
2023-09-17T18:01:20.781Z,1.10
2023-09-17T18:03:48.560Z,1.40
2023-09-17T18:06:17.523Z,1.00
2023-09-17T18:08:45.343Z,1.20
2023-09-17T18:11:13.059Z,1.10
2023-09-17T18:13:42.256Z,1.15
2023-09-17T18:16:10.286Z,1.85
2023-09-17T18:18:37.958Z,1.02
2023-09-17T18:21:05.649Z,1.00
2023-09-17T18:23:34.414Z,1.25
2023-09-17T18:26:03.523Z,1.00
2023-09-17T18:28:31.319Z,1.35
2023-09-17T18:31:00.513Z,1.40
2023-09-17T18:33:28.108Z,1.48
2023-09-17T18:35:57.229Z,1.65
2023-09-17T18:38:24.974Z,1.42
2023-09-17T18:40:53.023Z,1.30
2023-09-17T18:43:20.719Z,1.08
2023-09-17T18:45:48.355Z,1.65
2023-09-17T18:48:18.806Z,1.00
2023-09-17T18:50:46.685Z,1.02
2023-09-17T18:53:14.326Z,1.35
2023-09-17T18:55:41.979Z,1.00
2023-09-17T18:58:09.574Z,1.33
2023-09-17T19:00:37.303Z,1.00
2023-09-17T19:03:05.236Z,1.15
2023-09-17T19:05:36.811Z,1.33
2023-09-17T19:08:05.106Z,1.00
2023-09-17T19:10:32.897Z,1.20
2023-09-17T19:13:00.564Z,1.10
2023-09-17T19:15:28.203Z,1.13
2023-09-17T19:17:55.864Z,1.15
2023-09-17T19:20:23.564Z,1.02
2023-09-17T19:22:52.520Z,1.20
2023-09-17T19:25:20.234Z,1.20
2023-09-17T19:28:07.605Z,1.10
2023-09-17T19:30:35.288Z,1.00
2023-09-17T19:33:03.151Z,1.20
2023-09-17T19:35:31.520Z,1.00
2023-09-17T19:38:00.520Z,1.17
2023-09-17T19:40:28.234Z,1.13
2023-09-17T19:42:55.857Z,1.50
2023-09-17T19:45:24.804Z,1.20
2023-09-17T19:47:52.843Z,1.30
2023-09-17T19:50:20.675Z,1.10
2023-09-17T19:52:48.406Z,1.25
2023-09-17T19:55:17.354Z,0.98
2023-09-17T19:57:45.014Z,1.30
2023-09-17T20:00:13.111Z,1.13
2023-09-17T20:02:40.912Z,1.13
2023-09-17T20:05:09.343Z,1.35
2023-09-17T20:07:38.001Z,1.20
2023-09-17T20:10:13.911Z,1.40
2023-09-17T20:12:42.840Z,1.13
2023-09-17T20:15:10.543Z,1.08
2023-09-17T20:17:38.216Z,1.08
2023-09-17T20:20:06.426Z,1.10
2023-09-17T20:22:41.755Z,1.63
2023-09-17T20:25:10.094Z,1.52
2023-09-17T20:27:38.270Z,1.50
2023-09-17T20:32:55.282Z,1.80
2023-09-17T20:35:22.978Z,1.40
2023-09-17T20:37:50.777Z,1.08
2023-09-17T20:40:18.626Z,1.30
2023-09-17T20:42:46.241Z,1.60
2023-09-17T20:45:17.597Z,1.77
2023-09-17T20:47:45.351Z,1.58
2023-09-17T20:50:13.396Z,1.70
2023-09-17T20:52:41.384Z,1.65
2023-09-17T20:55:09.670Z,1.63
2023-09-17T20:57:37.428Z,2.13
2023-09-17T21:00:06.084Z,1.40
2023-09-17T21:02:35.335Z,1.48
2023-09-17T21:05:03.827Z,1.77
2023-09-17T21:07:31.516Z,2.45
2023-09-17T21:09:59.728Z,1.55
2023-09-17T21:12:29.621Z,1.63
2023-09-17T21:14:57.354Z,1.35
2023-09-17T21:17:25.129Z,2.03
2023-09-17T21:19:54.323Z,1.95
2023-09-17T21:22:22.083Z,1.98
2023-09-17T21:24:50.356Z,1.45
2023-09-17T21:27:17.982Z,1.50
2023-09-17T21:29:45.771Z,1.88
2023-09-17T21:32:13.621Z,1.63
2023-09-17T21:34:41.316Z,1.50
2023-09-17T21:37:12.029Z,1.50
2023-09-17T21:39:39.666Z,1.42
2023-09-17T21:42:07.264Z,1.70
2023-09-17T21:44:34.999Z,1.70
2023-09-17T21:47:03.118Z,2.03
2023-09-17T21:49:30.852Z,1.40
2023-09-17T21:51:58.477Z,1.25
2023-09-17T21:54:27.566Z,1.30
2023-09-17T21:56:58.054Z,1.52
2023-09-17T21:59:26.057Z,1.20
2023-09-17T22:01:53.800Z,1.42
2023-09-17T22:04:21.466Z,1.25
2023-09-17T22:06:49.309Z,1.77
2023-09-17T22:09:16.952Z,1.30
2023-09-17T22:11:45.911Z,1.48
2023-09-17T22:14:14.776Z,1.75
2023-09-17T22:16:42.526Z,1.33
2023-09-17T22:19:10.570Z,1.15
2023-09-17T22:21:38.306Z,1.30
2023-09-17T22:24:06.296Z,1.00
2023-09-17T22:26:34.101Z,1.35
2023-09-17T22:29:03.295Z,1.58
2023-09-17T22:31:30.977Z,1.20
2023-09-17T22:33:58.789Z,1.67
2023-09-17T22:36:26.667Z,1.52
2023-09-17T22:38:54.849Z,1.30
2023-09-17T22:41:23.221Z,1.23
2023-09-17T22:43:52.170Z,1.90
2023-09-17T22:46:22.435Z,1.30
2023-09-17T22:48:51.949Z,1.60
2023-09-17T22:51:20.523Z,1.35
2023-09-17T22:53:48.573Z,1.92
2023-09-17T22:56:16.360Z,1.42
2023-09-17T22:58:44.050Z,1.30
2023-09-17T23:01:12.319Z,1.50
2023-09-17T23:03:42.086Z,1.70
2023-09-17T23:06:09.735Z,1.20
2023-09-17T23:08:37.520Z,1.67
2023-09-17T23:11:06.711Z,1.35
2023-09-17T23:13:35.103Z,1.80
2023-09-17T23:16:03.160Z,1.95
2023-09-17T23:18:31.078Z,2.08
2023-09-17T23:21:00.356Z,1.52
2023-09-17T23:23:27.967Z,2.85
2023-09-17T23:25:56.330Z,1.50
2023-09-17T23:28:26.314Z,2.10
2023-09-17T23:30:54.570Z,1.38
2023-09-17T23:33:22.203Z,1.98
2023-09-17T23:35:51.129Z,1.95
2023-09-17T23:38:20.213Z,1.80
2023-09-17T23:40:47.989Z,1.98
2023-09-17T23:43:15.592Z,2.00
2023-09-17T23:45:43.239Z,1.65
2023-09-17T23:48:11.036Z,1.85
2023-09-17T23:50:38.713Z,1.90
2023-09-17T23:53:06.446Z,1.90
2023-09-17T23:55:35.341Z,2.08
2023-09-17T23:58:02.971Z,1.77
